sensor_id;sensor_type;location;lat;lon;timestamp;P1;durP1;ratioP1;P2;durP2;ratioP2
61152;SDS011;47030;50.732;4.286;2022-08-19T00:00:00;13.65;;;12.25;;
61152;SDS011;47030;50.732;4.286;2022-08-19T00:02:25;14.80;;;12.88;;
61152;SDS011;47030;50.732;4.286;2022-08-19T00:04:51;14.48;;;12.52;;
61152;SDS011;47030;50.732;4.286;2022-08-19T00:07:20;14.13;;;12.55;;
61152;SDS011;47030;50.732;4.286;2022-08-19T00:09:46;14.75;;;13.18;;
61152;SDS011;47030;50.732;4.286;2022-08-19T00:12:12;14.55;;;12.07;;
61152;SDS011;47030;50.732;4.286;2022-08-19T00:14:39;16.60;;;12.77;;
61152;SDS011;47030;50.732;4.286;2022-08-19T00:17:06;15.82;;;12.45;;
61152;SDS011;47030;50.732;4.286;2022-08-19T00:19:33;14.20;;;12.25;;
61152;SDS011;47030;50.732;4.286;2022-08-19T00:22:00;14.30;;;12.80;;
61152;SDS011;47030;50.732;4.286;2022-08-19T00:24:27;15.30;;;13.70;;
61152;SDS011;47030;50.732;4.286;2022-08-19T00:26:53;14.38;;;12.88;;
61152;SDS011;47030;50.732;4.286;2022-08-19T00:29:21;14.98;;;13.38;;
61152;SDS011;47030;50.732;4.286;2022-08-19T00:31:47;16.83;;;13.20;;
61152;SDS011;47030;50.732;4.286;2022-08-19T00:34:14;16.58;;;13.60;;
61152;SDS011;47030;50.732;4.286;2022-08-19T00:36:41;17.02;;;13.40;;
61152;SDS011;47030;50.732;4.286;2022-08-19T00:39:08;19.23;;;15.23;;
61152;SDS011;47030;50.732;4.286;2022-08-19T00:41:34;17.27;;;15.32;;
61152;SDS011;47030;50.732;4.286;2022-08-19T00:46:36;17.75;;;15.38;;
61152;SDS011;47030;50.732;4.286;2022-08-19T00:49:06;18.15;;;15.75;;
61152;SDS011;47030;50.732;4.286;2022-08-19T00:51:39;16.00;;;14.23;;
61152;SDS011;47030;50.732;4.286;2022-08-19T00:54:06;17.65;;;14.20;;
61152;SDS011;47030;50.732;4.286;2022-08-19T00:56:32;18.15;;;15.27;;
61152;SDS011;47030;50.732;4.286;2022-08-19T00:58:58;19.77;;;16.08;;
61152;SDS011;47030;50.732;4.286;2022-08-19T01:01:25;18.45;;;15.48;;
61152;SDS011;47030;50.732;4.286;2022-08-19T01:03:51;22.62;;;18.12;;
61152;SDS011;47030;50.732;4.286;2022-08-19T01:06:16;24.73;;;19.10;;
61152;SDS011;47030;50.732;4.286;2022-08-19T01:08:42;23.80;;;19.40;;
61152;SDS011;47030;50.732;4.286;2022-08-19T01:11:08;24.50;;;18.27;;
61152;SDS011;47030;50.732;4.286;2022-08-19T01:13:34;29.77;;;20.25;;
61152;SDS011;47030;50.732;4.286;2022-08-19T01:16:03;22.77;;;17.48;;
61152;SDS011;47030;50.732;4.286;2022-08-19T01:18:32;22.48;;;18.23;;
61152;SDS011;47030;50.732;4.286;2022-08-19T01:21:02;24.20;;;19.87;;
61152;SDS011;47030;50.732;4.286;2022-08-19T01:23:34;26.87;;;20.95;;
61152;SDS011;47030;50.732;4.286;2022-08-19T01:26:15;25.40;;;21.37;;
61152;SDS011;47030;50.732;4.286;2022-08-19T01:28:47;25.77;;;19.30;;
61152;SDS011;47030;50.732;4.286;2022-08-19T01:31:17;26.33;;;19.35;;
61152;SDS011;47030;50.732;4.286;2022-08-19T01:33:46;25.25;;;21.02;;
61152;SDS011;47030;50.732;4.286;2022-08-19T01:36:14;29.05;;;22.48;;
61152;SDS011;47030;50.732;4.286;2022-08-19T01:38:48;26.30;;;20.73;;
61152;SDS011;47030;50.732;4.286;2022-08-19T01:41:14;26.35;;;21.48;;
61152;SDS011;47030;50.732;4.286;2022-08-19T01:43:42;34.60;;;26.50;;
61152;SDS011;47030;50.732;4.286;2022-08-19T01:46:07;38.22;;;29.10;;
61152;SDS011;47030;50.732;4.286;2022-08-19T01:48:34;41.37;;;30.23;;
61152;SDS011;47030;50.732;4.286;2022-08-19T01:51:02;32.92;;;24.67;;
61152;SDS011;47030;50.732;4.286;2022-08-19T01:53:28;32.80;;;23.23;;
61152;SDS011;47030;50.732;4.286;2022-08-19T01:55:54;33.25;;;23.95;;
61152;SDS011;47030;50.732;4.286;2022-08-19T01:58:21;36.00;;;26.62;;
61152;SDS011;47030;50.732;4.286;2022-08-19T02:00:50;34.60;;;25.83;;
61152;SDS011;47030;50.732;4.286;2022-08-19T02:03:16;31.17;;;24.33;;
61152;SDS011;47030;50.732;4.286;2022-08-19T02:05:42;33.63;;;24.33;;
61152;SDS011;47030;50.732;4.286;2022-08-19T02:08:09;40.03;;;28.38;;
61152;SDS011;47030;50.732;4.286;2022-08-19T02:10:38;35.45;;;25.15;;
61152;SDS011;47030;50.732;4.286;2022-08-19T02:13:06;33.33;;;24.65;;
61152;SDS011;47030;50.732;4.286;2022-08-19T02:15:32;34.38;;;25.50;;
61152;SDS011;47030;50.732;4.286;2022-08-19T02:17:57;32.42;;;25.12;;
61152;SDS011;47030;50.732;4.286;2022-08-19T02:20:24;35.40;;;25.65;;
61152;SDS011;47030;50.732;4.286;2022-08-19T02:22:50;35.47;;;25.48;;
61152;SDS011;47030;50.732;4.286;2022-08-19T02:25:16;33.03;;;23.30;;
61152;SDS011;47030;50.732;4.286;2022-08-19T02:27:42;33.78;;;23.90;;
61152;SDS011;47030;50.732;4.286;2022-08-19T02:30:09;35.88;;;24.42;;
61152;SDS011;47030;50.732;4.286;2022-08-19T02:32:37;33.95;;;23.92;;
61152;SDS011;47030;50.732;4.286;2022-08-19T02:35:04;33.00;;;23.35;;
61152;SDS011;47030;50.732;4.286;2022-08-19T02:37:30;31.02;;;22.08;;
61152;SDS011;47030;50.732;4.286;2022-08-19T02:40:15;30.48;;;22.48;;
61152;SDS011;47030;50.732;4.286;2022-08-19T02:42:42;31.17;;;21.10;;
61152;SDS011;47030;50.732;4.286;2022-08-19T02:45:08;31.37;;;21.25;;
61152;SDS011;47030;50.732;4.286;2022-08-19T02:47:34;33.42;;;21.50;;
61152;SDS011;47030;50.732;4.286;2022-08-19T02:50:01;29.10;;;19.75;;
61152;SDS011;47030;50.732;4.286;2022-08-19T02:52:29;31.33;;;21.95;;
61152;SDS011;47030;50.732;4.286;2022-08-19T02:54:56;35.95;;;22.60;;
61152;SDS011;47030;50.732;4.286;2022-08-19T02:57:22;33.90;;;21.42;;
61152;SDS011;47030;50.732;4.286;2022-08-19T02:59:49;33.05;;;22.87;;
61152;SDS011;47030;50.732;4.286;2022-08-19T03:02:15;33.95;;;23.65;;
61152;SDS011;47030;50.732;4.286;2022-08-19T03:04:41;34.55;;;23.30;;
61152;SDS011;47030;50.732;4.286;2022-08-19T03:07:07;34.90;;;24.27;;
61152;SDS011;47030;50.732;4.286;2022-08-19T03:09:33;35.60;;;23.95;;
61152;SDS011;47030;50.732;4.286;2022-08-19T03:12:02;41.03;;;25.33;;
61152;SDS011;47030;50.732;4.286;2022-08-19T03:14:30;40.10;;;26.05;;
61152;SDS011;47030;50.732;4.286;2022-08-19T03:16:57;37.08;;;25.73;;
61152;SDS011;47030;50.732;4.286;2022-08-19T03:19:23;37.90;;;26.92;;
61152;SDS011;47030;50.732;4.286;2022-08-19T03:21:49;37.97;;;26.77;;
61152;SDS011;47030;50.732;4.286;2022-08-19T03:24:16;40.75;;;25.30;;
61152;SDS011;47030;50.732;4.286;2022-08-19T03:26:47;41.45;;;27.05;;
61152;SDS011;47030;50.732;4.286;2022-08-19T03:29:15;37.97;;;25.98;;
61152;SDS011;47030;50.732;4.286;2022-08-19T03:31:42;42.40;;;27.40;;
61152;SDS011;47030;50.732;4.286;2022-08-19T03:34:10;39.75;;;25.65;;
61152;SDS011;47030;50.732;4.286;2022-08-19T03:36:43;43.20;;;26.92;;
61152;SDS011;47030;50.732;4.286;2022-08-19T03:39:10;38.22;;;26.17;;
61152;SDS011;47030;50.732;4.286;2022-08-19T03:41:37;49.33;;;28.87;;
61152;SDS011;47030;50.732;4.286;2022-08-19T03:44:05;44.30;;;28.87;;
61152;SDS011;47030;50.732;4.286;2022-08-19T03:46:33;44.90;;;29.02;;
61152;SDS011;47030;50.732;4.286;2022-08-19T03:49:02;46.95;;;29.87;;
61152;SDS011;47030;50.732;4.286;2022-08-19T03:51:36;44.00;;;28.75;;
61152;SDS011;47030;50.732;4.286;2022-08-19T03:54:05;43.92;;;28.98;;
61152;SDS011;47030;50.732;4.286;2022-08-19T03:56:34;45.50;;;28.45;;
61152;SDS011;47030;50.732;4.286;2022-08-19T03:59:03;47.55;;;28.45;;
61152;SDS011;47030;50.732;4.286;2022-08-19T04:01:30;51.03;;;31.05;;
61152;SDS011;47030;50.732;4.286;2022-08-19T04:03:56;51.20;;;31.45;;
61152;SDS011;47030;50.732;4.286;2022-08-19T04:06:23;51.80;;;31.05;;
61152;SDS011;47030;50.732;4.286;2022-08-19T04:08:51;50.15;;;30.45;;
61152;SDS011;47030;50.732;4.286;2022-08-19T04:11:25;51.83;;;31.67;;
61152;SDS011;47030;50.732;4.286;2022-08-19T04:13:53;57.95;;;31.58;;
61152;SDS011;47030;50.732;4.286;2022-08-19T04:16:23;49.80;;;31.00;;
61152;SDS011;47030;50.732;4.286;2022-08-19T04:18:56;49.88;;;31.48;;
61152;SDS011;47030;50.732;4.286;2022-08-19T04:21:26;47.88;;;30.35;;
61152;SDS011;47030;50.732;4.286;2022-08-19T04:23:53;51.97;;;31.58;;
61152;SDS011;47030;50.732;4.286;2022-08-19T04:26:23;48.17;;;29.80;;
61152;SDS011;47030;50.732;4.286;2022-08-19T04:28:51;45.50;;;30.85;;
61152;SDS011;47030;50.732;4.286;2022-08-19T04:31:20;51.78;;;31.08;;
61152;SDS011;47030;50.732;4.286;2022-08-19T04:33:47;48.87;;;33.03;;
61152;SDS011;47030;50.732;4.286;2022-08-19T04:36:20;52.85;;;33.45;;
61152;SDS011;47030;50.732;4.286;2022-08-19T04:38:49;47.25;;;32.47;;
61152;SDS011;47030;50.732;4.286;2022-08-19T04:41:17;51.13;;;32.75;;
61152;SDS011;47030;50.732;4.286;2022-08-19T04:44:02;50.28;;;31.92;;
61152;SDS011;47030;50.732;4.286;2022-08-19T04:46:28;54.15;;;31.42;;
61152;SDS011;47030;50.732;4.286;2022-08-19T04:48:55;50.60;;;31.52;;
61152;SDS011;47030;50.732;4.286;2022-08-19T04:51:22;50.72;;;32.35;;
61152;SDS011;47030;50.732;4.286;2022-08-19T04:53:48;49.72;;;31.25;;
61152;SDS011;47030;50.732;4.286;2022-08-19T04:56:14;49.60;;;31.45;;
61152;SDS011;47030;50.732;4.286;2022-08-19T04:58:42;52.65;;;31.12;;
61152;SDS011;47030;50.732;4.286;2022-08-19T05:01:27;48.72;;;29.05;;
61152;SDS011;47030;50.732;4.286;2022-08-19T05:03:54;43.95;;;29.67;;
61152;SDS011;47030;50.732;4.286;2022-08-19T05:06:22;43.20;;;27.90;;
61152;SDS011;47030;50.732;4.286;2022-08-19T05:08:48;44.97;;;28.35;;
61152;SDS011;47030;50.732;4.286;2022-08-19T05:11:19;42.47;;;27.80;;
61152;SDS011;47030;50.732;4.286;2022-08-19T05:13:53;42.58;;;27.85;;
61152;SDS011;47030;50.732;4.286;2022-08-19T05:16:20;45.05;;;28.92;;
61152;SDS011;47030;50.732;4.286;2022-08-19T05:18:47;42.67;;;28.02;;
61152;SDS011;47030;50.732;4.286;2022-08-19T05:21:32;38.90;;;25.40;;
61152;SDS011;47030;50.732;4.286;2022-08-19T05:24:17;39.53;;;24.25;;
61152;SDS011;47030;50.732;4.286;2022-08-19T05:26:45;31.00;;;22.20;;
61152;SDS011;47030;50.732;4.286;2022-08-19T05:29:15;35.58;;;20.52;;
61152;SDS011;47030;50.732;4.286;2022-08-19T05:31:43;32.50;;;20.25;;
61152;SDS011;47030;50.732;4.286;2022-08-19T05:34:09;27.42;;;19.50;;
61152;SDS011;47030;50.732;4.286;2022-08-19T05:36:37;29.63;;;18.35;;
61152;SDS011;47030;50.732;4.286;2022-08-19T05:39:05;28.45;;;17.60;;
61152;SDS011;47030;50.732;4.286;2022-08-19T05:41:32;19.62;;;15.10;;
61152;SDS011;47030;50.732;4.286;2022-08-19T05:44:00;25.10;;;14.48;;
61152;SDS011;47030;50.732;4.286;2022-08-19T05:46:27;20.10;;;13.38;;
61152;SDS011;47030;50.732;4.286;2022-08-19T05:48:54;17.37;;;11.90;;
61152;SDS011;47030;50.732;4.286;2022-08-19T05:51:21;16.70;;;12.23;;
61152;SDS011;47030;50.732;4.286;2022-08-19T05:53:49;21.95;;;12.85;;
61152;SDS011;47030;50.732;4.286;2022-08-19T05:56:15;15.43;;;11.00;;
61152;SDS011;47030;50.732;4.286;2022-08-19T05:58:43;19.02;;;12.05;;
61152;SDS011;47030;50.732;4.286;2022-08-19T06:01:17;18.85;;;11.05;;
61152;SDS011;47030;50.732;4.286;2022-08-19T06:03:43;16.00;;;11.05;;
61152;SDS011;47030;50.732;4.286;2022-08-19T06:06:11;16.17;;;10.70;;
61152;SDS011;47030;50.732;4.286;2022-08-19T06:08:38;16.58;;;10.57;;
61152;SDS011;47030;50.732;4.286;2022-08-19T06:13:44;17.90;;;10.60;;
61152;SDS011;47030;50.732;4.286;2022-08-19T06:16:16;15.32;;;9.68;;
61152;SDS011;47030;50.732;4.286;2022-08-19T06:18:47;15.77;;;9.80;;
61152;SDS011;47030;50.732;4.286;2022-08-19T06:21:17;16.95;;;9.70;;
61152;SDS011;47030;50.732;4.286;2022-08-19T06:23:44;19.12;;;9.73;;
61152;SDS011;47030;50.732;4.286;2022-08-19T06:26:12;14.00;;;9.25;;
61152;SDS011;47030;50.732;4.286;2022-08-19T06:28:39;14.02;;;8.02;;
61152;SDS011;47030;50.732;4.286;2022-08-19T06:31:08;14.45;;;8.23;;
61152;SDS011;47030;50.732;4.286;2022-08-19T06:33:35;17.05;;;7.97;;
61152;SDS011;47030;50.732;4.286;2022-08-19T06:36:02;14.65;;;7.65;;
61152;SDS011;47030;50.732;4.286;2022-08-19T06:38:28;14.98;;;6.45;;
61152;SDS011;47030;50.732;4.286;2022-08-19T06:41:01;13.10;;;7.07;;
61152;SDS011;47030;50.732;4.286;2022-08-19T06:45:55;11.68;;;6.72;;
61152;SDS011;47030;50.732;4.286;2022-08-19T06:48:20;12.57;;;6.82;;
61152;SDS011;47030;50.732;4.286;2022-08-19T06:50:46;12.02;;;6.50;;
61152;SDS011;47030;50.732;4.286;2022-08-19T06:53:13;13.85;;;6.37;;
61152;SDS011;47030;50.732;4.286;2022-08-19T06:55:39;16.00;;;7.43;;
61152;SDS011;47030;50.732;4.286;2022-08-19T06:58:05;13.20;;;5.97;;
61152;SDS011;47030;50.732;4.286;2022-08-19T07:00:31;16.87;;;7.32;;
61152;SDS011;47030;50.732;4.286;2022-08-19T07:02:58;10.38;;;6.95;;
61152;SDS011;47030;50.732;4.286;2022-08-19T07:05:25;14.98;;;7.53;;
61152;SDS011;47030;50.732;4.286;2022-08-19T07:07:50;14.45;;;6.82;;
61152;SDS011;47030;50.732;4.286;2022-08-19T07:10:16;14.48;;;7.68;;
61152;SDS011;47030;50.732;4.286;2022-08-19T07:12:43;12.18;;;6.60;;
61152;SDS011;47030;50.732;4.286;2022-08-19T07:15:09;14.43;;;7.22;;
61152;SDS011;47030;50.732;4.286;2022-08-19T07:17:36;12.73;;;6.75;;
61152;SDS011;47030;50.732;4.286;2022-08-19T07:20:04;13.57;;;7.68;;
61152;SDS011;47030;50.732;4.286;2022-08-19T07:22:32;11.43;;;7.55;;
61152;SDS011;47030;50.732;4.286;2022-08-19T07:24:59;12.68;;;7.05;;
61152;SDS011;47030;50.732;4.286;2022-08-19T07:27:24;12.45;;;7.65;;
61152;SDS011;47030;50.732;4.286;2022-08-19T07:29:51;16.05;;;7.85;;
61152;SDS011;47030;50.732;4.286;2022-08-19T07:32:18;11.07;;;7.28;;
61152;SDS011;47030;50.732;4.286;2022-08-19T07:34:43;11.30;;;7.03;;
61152;SDS011;47030;50.732;4.286;2022-08-19T07:37:10;14.90;;;7.22;;
61152;SDS011;47030;50.732;4.286;2022-08-19T07:39:36;9.23;;;6.32;;
61152;SDS011;47030;50.732;4.286;2022-08-19T07:42:04;10.82;;;5.53;;
61152;SDS011;47030;50.732;4.286;2022-08-19T07:44:32;12.25;;;6.10;;
61152;SDS011;47030;50.732;4.286;2022-08-19T07:46:59;9.18;;;5.15;;
61152;SDS011;47030;50.732;4.286;2022-08-19T07:49:26;7.68;;;4.70;;
61152;SDS011;47030;50.732;4.286;2022-08-19T07:51:53;10.35;;;4.65;;
61152;SDS011;47030;50.732;4.286;2022-08-19T07:54:22;10.02;;;4.90;;
61152;SDS011;47030;50.732;4.286;2022-08-19T07:56:49;8.63;;;4.20;;
61152;SDS011;47030;50.732;4.286;2022-08-19T07:59:18;10.32;;;4.80;;
61152;SDS011;47030;50.732;4.286;2022-08-19T08:01:45;7.03;;;4.20;;
61152;SDS011;47030;50.732;4.286;2022-08-19T08:04:12;6.97;;;3.85;;
61152;SDS011;47030;50.732;4.286;2022-08-19T08:06:57;7.37;;;4.60;;
61152;SDS011;47030;50.732;4.286;2022-08-19T08:09:42;9.02;;;4.90;;
61152;SDS011;47030;50.732;4.286;2022-08-19T08:12:16;14.82;;;6.22;;
61152;SDS011;47030;50.732;4.286;2022-08-19T08:14:51;8.05;;;5.05;;
61152;SDS011;47030;50.732;4.286;2022-08-19T08:17:19;8.73;;;4.18;;
61152;SDS011;47030;50.732;4.286;2022-08-19T08:19:46;6.35;;;4.43;;
61152;SDS011;47030;50.732;4.286;2022-08-19T08:22:15;8.20;;;5.00;;
61152;SDS011;47030;50.732;4.286;2022-08-19T08:25:05;9.10;;;5.07;;
61152;SDS011;47030;50.732;4.286;2022-08-19T08:27:37;8.95;;;4.57;;
61152;SDS011;47030;50.732;4.286;2022-08-19T08:30:05;13.00;;;5.25;;
61152;SDS011;47030;50.732;4.286;2022-08-19T08:32:37;7.97;;;4.50;;
61152;SDS011;47030;50.732;4.286;2022-08-19T08:35:09;7.82;;;4.30;;
61152;SDS011;47030;50.732;4.286;2022-08-19T08:37:36;10.82;;;4.68;;
61152;SDS011;47030;50.732;4.286;2022-08-19T08:40:04;6.82;;;4.05;;
61152;SDS011;47030;50.732;4.286;2022-08-19T08:42:40;7.12;;;4.47;;
61152;SDS011;47030;50.732;4.286;2022-08-19T08:45:16;6.68;;;4.68;;
61152;SDS011;47030;50.732;4.286;2022-08-19T08:47:44;9.88;;;4.65;;
61152;SDS011;47030;50.732;4.286;2022-08-19T08:50:21;8.82;;;5.35;;
61152;SDS011;47030;50.732;4.286;2022-08-19T08:52:53;7.22;;;4.55;;
61152;SDS011;47030;50.732;4.286;2022-08-19T08:55:23;6.93;;;4.57;;
61152;SDS011;47030;50.732;4.286;2022-08-19T08:58:06;10.90;;;4.68;;
61152;SDS011;47030;50.732;4.286;2022-08-19T09:00:41;8.48;;;4.85;;
61152;SDS011;47030;50.732;4.286;2022-08-19T09:03:15;9.70;;;4.78;;
61152;SDS011;47030;50.732;4.286;2022-08-19T09:08:45;8.23;;;5.12;;
61152;SDS011;47030;50.732;4.286;2022-08-19T09:17:02;9.43;;;4.75;;
61152;SDS011;47030;50.732;4.286;2022-08-19T09:19:33;8.77;;;3.92;;
61152;SDS011;47030;50.732;4.286;2022-08-19T09:21:59;6.93;;;4.00;;
61152;SDS011;47030;50.732;4.286;2022-08-19T09:24:25;7.90;;;4.93;;
61152;SDS011;47030;50.732;4.286;2022-08-19T09:26:51;6.62;;;4.82;;
61152;SDS011;47030;50.732;4.286;2022-08-19T09:29:17;6.47;;;4.37;;
61152;SDS011;47030;50.732;4.286;2022-08-19T09:31:43;8.02;;;4.35;;
61152;SDS011;47030;50.732;4.286;2022-08-19T09:34:09;7.47;;;3.90;;
61152;SDS011;47030;50.732;4.286;2022-08-19T09:36:35;6.78;;;4.25;;
61152;SDS011;47030;50.732;4.286;2022-08-19T09:39:04;5.70;;;4.18;;
61152;SDS011;47030;50.732;4.286;2022-08-19T09:41:31;6.12;;;4.30;;
61152;SDS011;47030;50.732;4.286;2022-08-19T09:43:57;7.65;;;4.72;;
61152;SDS011;47030;50.732;4.286;2022-08-19T09:46:24;6.10;;;4.43;;
61152;SDS011;47030;50.732;4.286;2022-08-19T09:48:52;10.55;;;4.90;;
61152;SDS011;47030;50.732;4.286;2022-08-19T09:51:22;8.57;;;4.85;;
61152;SDS011;47030;50.732;4.286;2022-08-19T09:53:49;7.95;;;4.72;;
61152;SDS011;47030;50.732;4.286;2022-08-19T09:56:17;7.90;;;4.53;;
61152;SDS011;47030;50.732;4.286;2022-08-19T09:58:44;10.52;;;5.50;;
61152;SDS011;47030;50.732;4.286;2022-08-19T10:01:14;6.80;;;4.82;;
61152;SDS011;47030;50.732;4.286;2022-08-19T10:03:47;7.22;;;5.55;;
61152;SDS011;47030;50.732;4.286;2022-08-19T10:06:15;10.75;;;5.65;;
61152;SDS011;47030;50.732;4.286;2022-08-19T10:08:41;9.63;;;5.90;;
61152;SDS011;47030;50.732;4.286;2022-08-19T10:11:07;9.57;;;5.87;;
61152;SDS011;47030;50.732;4.286;2022-08-19T10:13:35;7.78;;;5.35;;
61152;SDS011;47030;50.732;4.286;2022-08-19T10:16:03;8.75;;;5.05;;
61152;SDS011;47030;50.732;4.286;2022-08-19T10:18:31;8.75;;;6.80;;
61152;SDS011;47030;50.732;4.286;2022-08-19T10:23:50;10.32;;;6.82;;
61152;SDS011;47030;50.732;4.286;2022-08-19T10:26:22;10.85;;;7.43;;
61152;SDS011;47030;50.732;4.286;2022-08-19T10:28:52;10.50;;;7.72;;
61152;SDS011;47030;50.732;4.286;2022-08-19T10:31:20;11.90;;;8.20;;
61152;SDS011;47030;50.732;4.286;2022-08-19T10:33:48;11.95;;;7.20;;
61152;SDS011;47030;50.732;4.286;2022-08-19T10:36:20;12.80;;;7.32;;
61152;SDS011;47030;50.732;4.286;2022-08-19T10:38:48;10.57;;;6.80;;
61152;SDS011;47030;50.732;4.286;2022-08-19T10:41:17;9.20;;;6.45;;
61152;SDS011;47030;50.732;4.286;2022-08-19T10:43:44;8.63;;;5.85;;
61152;SDS011;47030;50.732;4.286;2022-08-19T10:46:11;8.15;;;5.72;;
61152;SDS011;47030;50.732;4.286;2022-08-19T10:48:39;8.27;;;5.87;;
61152;SDS011;47030;50.732;4.286;2022-08-19T10:51:06;9.55;;;6.30;;
61152;SDS011;47030;50.732;4.286;2022-08-19T10:53:51;13.02;;;7.28;;
61152;SDS011;47030;50.732;4.286;2022-08-19T10:56:17;9.43;;;6.65;;
61152;SDS011;47030;50.732;4.286;2022-08-19T10:59:02;9.50;;;6.60;;
61152;SDS011;47030;50.732;4.286;2022-08-19T11:01:29;10.35;;;6.53;;
61152;SDS011;47030;50.732;4.286;2022-08-19T11:03:57;12.60;;;6.45;;
61152;SDS011;47030;50.732;4.286;2022-08-19T11:06:23;10.40;;;6.00;;
61152;SDS011;47030;50.732;4.286;2022-08-19T11:08:50;9.07;;;5.62;;
61152;SDS011;47030;50.732;4.286;2022-08-19T11:11:19;7.90;;;5.68;;
61152;SDS011;47030;50.732;4.286;2022-08-19T11:13:46;9.05;;;5.50;;
61152;SDS011;47030;50.732;4.286;2022-08-19T11:16:14;11.27;;;6.00;;
61152;SDS011;47030;50.732;4.286;2022-08-19T11:18:44;10.10;;;5.78;;
61152;SDS011;47030;50.732;4.286;2022-08-19T11:21:15;8.85;;;5.03;;
61152;SDS011;47030;50.732;4.286;2022-08-19T11:23:44;6.93;;;5.70;;
61152;SDS011;47030;50.732;4.286;2022-08-19T11:26:11;7.00;;;4.90;;
61152;SDS011;47030;50.732;4.286;2022-08-19T11:28:37;8.63;;;5.28;;
61152;SDS011;47030;50.732;4.286;2022-08-19T11:31:03;7.22;;;4.47;;
61152;SDS011;47030;50.732;4.286;2022-08-19T11:33:30;6.62;;;4.65;;
61152;SDS011;47030;50.732;4.286;2022-08-19T11:35:58;8.00;;;4.57;;
61152;SDS011;47030;50.732;4.286;2022-08-19T11:38:25;8.65;;;4.15;;
61152;SDS011;47030;50.732;4.286;2022-08-19T11:40:58;9.60;;;5.03;;
61152;SDS011;47030;50.732;4.286;2022-08-19T11:43:25;9.32;;;4.93;;
61152;SDS011;47030;50.732;4.286;2022-08-19T11:45:52;7.18;;;5.05;;
61152;SDS011;47030;50.732;4.286;2022-08-19T11:48:18;6.03;;;4.20;;
61152;SDS011;47030;50.732;4.286;2022-08-19T11:50:47;9.07;;;4.12;;
61152;SDS011;47030;50.732;4.286;2022-08-19T11:53:21;7.15;;;3.70;;
61152;SDS011;47030;50.732;4.286;2022-08-19T11:55:48;4.85;;;3.62;;
61152;SDS011;47030;50.732;4.286;2022-08-19T11:58:15;5.40;;;3.55;;
61152;SDS011;47030;50.732;4.286;2022-08-19T12:00:42;5.22;;;3.62;;
61152;SDS011;47030;50.732;4.286;2022-08-19T12:03:10;6.53;;;3.37;;
61152;SDS011;47030;50.732;4.286;2022-08-19T12:05:37;5.00;;;3.30;;
61152;SDS011;47030;50.732;4.286;2022-08-19T12:08:04;6.05;;;2.58;;
61152;SDS011;47030;50.732;4.286;2022-08-19T12:10:30;3.40;;;2.40;;
61152;SDS011;47030;50.732;4.286;2022-08-19T12:12:56;4.82;;;2.55;;
61152;SDS011;47030;50.732;4.286;2022-08-19T12:15:21;3.47;;;2.03;;
61152;SDS011;47030;50.732;4.286;2022-08-19T12:17:47;2.90;;;2.25;;
61152;SDS011;47030;50.732;4.286;2022-08-19T12:20:13;4.75;;;2.20;;
61152;SDS011;47030;50.732;4.286;2022-08-19T12:22:40;5.75;;;2.30;;
61152;SDS011;47030;50.732;4.286;2022-08-19T12:25:07;5.87;;;2.60;;
61152;SDS011;47030;50.732;4.286;2022-08-19T12:27:34;3.85;;;2.70;;
61152;SDS011;47030;50.732;4.286;2022-08-19T12:30:00;3.83;;;2.10;;
61152;SDS011;47030;50.732;4.286;2022-08-19T12:32:27;3.50;;;2.50;;
61152;SDS011;47030;50.732;4.286;2022-08-19T12:34:53;2.40;;;2.20;;
61152;SDS011;47030;50.732;4.286;2022-08-19T12:37:19;4.28;;;2.00;;
61152;SDS011;47030;50.732;4.286;2022-08-19T12:39:45;5.60;;;1.92;;
61152;SDS011;47030;50.732;4.286;2022-08-19T12:42:11;2.53;;;1.80;;
61152;SDS011;47030;50.732;4.286;2022-08-19T12:44:39;3.45;;;1.85;;
61152;SDS011;47030;50.732;4.286;2022-08-19T12:47:06;4.37;;;2.33;;
61152;SDS011;47030;50.732;4.286;2022-08-19T12:49:33;3.45;;;1.80;;
61152;SDS011;47030;50.732;4.286;2022-08-19T12:52:00;4.35;;;2.33;;
61152;SDS011;47030;50.732;4.286;2022-08-19T12:54:26;3.50;;;1.90;;
61152;SDS011;47030;50.732;4.286;2022-08-19T12:56:52;3.15;;;2.37;;
61152;SDS011;47030;50.732;4.286;2022-08-19T12:59:18;2.20;;;1.87;;
61152;SDS011;47030;50.732;4.286;2022-08-19T13:01:44;3.35;;;2.17;;
61152;SDS011;47030;50.732;4.286;2022-08-19T13:04:10;3.10;;;1.87;;
61152;SDS011;47030;50.732;4.286;2022-08-19T13:06:36;3.83;;;1.77;;
61152;SDS011;47030;50.732;4.286;2022-08-19T13:09:05;3.47;;;1.98;;
61152;SDS011;47030;50.732;4.286;2022-08-19T13:11:31;6.37;;;1.90;;
61152;SDS011;47030;50.732;4.286;2022-08-19T13:14:00;3.28;;;1.90;;
61152;SDS011;47030;50.732;4.286;2022-08-19T13:16:27;5.87;;;1.80;;
61152;SDS011;47030;50.732;4.286;2022-08-19T13:18:54;3.05;;;1.60;;
61152;SDS011;47030;50.732;4.286;2022-08-19T13:21:21;4.53;;;1.80;;
61152;SDS011;47030;50.732;4.286;2022-08-19T13:23:50;3.35;;;2.05;;
61152;SDS011;47030;50.732;4.286;2022-08-19T13:26:16;4.62;;;2.05;;
61152;SDS011;47030;50.732;4.286;2022-08-19T13:28:43;5.43;;;1.90;;
61152;SDS011;47030;50.732;4.286;2022-08-19T13:31:31;7.10;;;1.73;;
61152;SDS011;47030;50.732;4.286;2022-08-19T13:34:17;2.03;;;1.42;;
61152;SDS011;47030;50.732;4.286;2022-08-19T13:36:45;4.22;;;1.50;;
61152;SDS011;47030;50.732;4.286;2022-08-19T13:39:11;5.47;;;1.65;;
61152;SDS011;47030;50.732;4.286;2022-08-19T13:41:37;2.12;;;1.00;;
61152;SDS011;47030;50.732;4.286;2022-08-19T13:46:38;2.30;;;1.00;;
61152;SDS011;47030;50.732;4.286;2022-08-19T13:49:04;3.20;;;1.10;;
61152;SDS011;47030;50.732;4.286;2022-08-19T13:51:30;3.80;;;1.12;;
61152;SDS011;47030;50.732;4.286;2022-08-19T13:53:56;1.80;;;0.98;;
61152;SDS011;47030;50.732;4.286;2022-08-19T13:56:21;3.28;;;1.90;;
61152;SDS011;47030;50.732;4.286;2022-08-19T13:58:47;3.33;;;1.95;;
61152;SDS011;47030;50.732;4.286;2022-08-19T14:01:18;5.28;;;2.50;;
61152;SDS011;47030;50.732;4.286;2022-08-19T14:03:47;5.15;;;2.47;;
61152;SDS011;47030;50.732;4.286;2022-08-19T14:06:12;3.53;;;2.67;;
61152;SDS011;47030;50.732;4.286;2022-08-19T14:08:38;3.35;;;3.05;;
61152;SDS011;47030;50.732;4.286;2022-08-19T14:11:06;3.72;;;2.53;;
61152;SDS011;47030;50.732;4.286;2022-08-19T14:13:32;2.95;;;2.47;;
61152;SDS011;47030;50.732;4.286;2022-08-19T14:15:59;4.65;;;2.35;;
61152;SDS011;47030;50.732;4.286;2022-08-19T14:18:25;3.08;;;1.62;;
61152;SDS011;47030;50.732;4.286;2022-08-19T14:20:51;6.45;;;1.90;;
61152;SDS011;47030;50.732;4.286;2022-08-19T14:23:17;3.10;;;1.80;;
61152;SDS011;47030;50.732;4.286;2022-08-19T14:25:43;5.47;;;1.70;;
61152;SDS011;47030;50.732;4.286;2022-08-19T14:28:09;4.85;;;1.70;;
61152;SDS011;47030;50.732;4.286;2022-08-19T14:30:36;7.80;;;1.52;;
61152;SDS011;47030;50.732;4.286;2022-08-19T14:33:06;3.30;;;1.50;;
61152;SDS011;47030;50.732;4.286;2022-08-19T14:35:33;3.20;;;1.62;;
61152;SDS011;47030;50.732;4.286;2022-08-19T14:37:59;3.30;;;1.77;;
61152;SDS011;47030;50.732;4.286;2022-08-19T14:40:26;5.57;;;2.35;;
61152;SDS011;47030;50.732;4.286;2022-08-19T14:42:54;5.93;;;2.33;;
61152;SDS011;47030;50.732;4.286;2022-08-19T14:45:24;3.20;;;2.00;;
61152;SDS011;47030;50.732;4.286;2022-08-19T14:47:51;4.22;;;2.00;;
61152;SDS011;47030;50.732;4.286;2022-08-19T14:50:17;2.75;;;1.95;;
61152;SDS011;47030;50.732;4.286;2022-08-19T14:52:44;3.17;;;2.28;;
61152;SDS011;47030;50.732;4.286;2022-08-19T14:55:14;2.55;;;1.85;;
61152;SDS011;47030;50.732;4.286;2022-08-19T14:57:42;5.80;;;2.00;;
61152;SDS011;47030;50.732;4.286;2022-08-19T15:00:09;3.67;;;2.10;;